createdAt,value
2022-09-09T00:01:29.212Z,3.25
2022-09-09T00:04:02.141Z,3.25
2022-09-09T00:06:36.619Z,3.28
2022-09-09T00:09:12.797Z,3.30
2022-09-09T00:11:45.289Z,3.75
2022-09-09T00:14:25.453Z,4.03
2022-09-09T00:16:57.547Z,3.67
2022-09-09T00:19:32.289Z,3.40
2022-09-09T00:22:16.625Z,3.22
2022-09-09T00:24:48.758Z,4.10
2022-09-09T00:27:30.191Z,3.53
2022-09-09T00:30:02.790Z,3.70
2022-09-09T00:32:33.865Z,3.38
2022-09-09T00:35:06.422Z,3.47
2022-09-09T00:37:36.453Z,4.00
2022-09-09T00:40:20.676Z,3.22
2022-09-09T00:42:51.324Z,4.22
2022-09-09T00:45:39.704Z,4.30
2022-09-09T00:48:13.310Z,4.28
2022-09-09T00:50:51.582Z,3.35
2022-09-09T00:53:30.993Z,3.78
2022-09-09T00:56:13.799Z,4.80
2022-09-09T00:58:44.741Z,4.72
2022-09-09T01:01:14.688Z,3.42
2022-09-09T01:03:48.811Z,4.95
2022-09-09T01:06:28.597Z,2.70
2022-09-09T01:09:16.541Z,3.75
2022-09-09T01:11:55.081Z,3.65
2022-09-09T01:14:33.037Z,3.22
2022-09-09T01:17:06.540Z,3.17
2022-09-09T01:19:48.245Z,3.30
2022-09-09T01:22:28.560Z,3.30
2022-09-09T01:25:16.035Z,3.55
2022-09-09T01:28:10.556Z,4.15
2022-09-09T01:30:42.531Z,3.30
2022-09-09T01:33:38.536Z,4.25
2022-09-09T01:36:11.522Z,3.80
2022-09-09T01:38:47.414Z,3.75
2022-09-09T01:41:16.842Z,3.00
2022-09-09T01:43:52.949Z,3.70
2022-09-09T01:46:24.185Z,3.70
2022-09-09T01:48:54.491Z,3.47
2022-09-09T01:51:22.775Z,3.42
2022-09-09T01:53:51.685Z,3.40
2022-09-09T01:56:34.583Z,3.42
2022-09-09T01:59:16.917Z,4.30
2022-09-09T02:01:57.543Z,3.95
2022-09-09T02:04:38.034Z,4.22
2022-09-09T02:07:23.484Z,4.50
2022-09-09T02:09:59.565Z,3.22
2022-09-09T02:12:30.053Z,3.92
2022-09-09T02:15:07.447Z,3.95
2022-09-09T02:17:48.683Z,3.65
2022-09-09T02:20:20.217Z,3.40
2022-09-09T02:22:55.059Z,3.53
2022-09-09T02:25:28.163Z,3.45
2022-09-09T02:28:01.282Z,4.00
2022-09-09T02:30:39.235Z,3.30
2022-09-09T02:33:11.626Z,4.20
2022-09-09T02:35:47.743Z,3.40
2022-09-09T02:38:20.964Z,3.65
2022-09-09T02:41:05.260Z,3.95
2022-09-09T02:43:34.444Z,4.47
2022-09-09T02:46:13.439Z,4.57
2022-09-09T02:48:53.210Z,4.38
2022-09-09T02:51:31.756Z,4.93
2022-09-09T02:54:06.446Z,4.45
2022-09-09T02:56:42.270Z,4.15
2022-09-09T02:59:12.639Z,3.90
2022-09-09T03:01:42.470Z,3.10
2022-09-09T03:04:12.071Z,3.10
2022-09-09T03:06:41.388Z,3.50
2022-09-09T03:09:18.733Z,3.10
2022-09-09T03:11:46.857Z,3.15
2022-09-09T03:14:17.595Z,3.17
2022-09-09T03:16:47.326Z,3.55
2022-09-09T03:19:15.434Z,4.28
2022-09-09T03:21:43.573Z,3.83
2022-09-09T03:24:11.584Z,4.20
2022-09-09T03:26:41.821Z,3.08
2022-09-09T03:29:14.343Z,3.45
2022-09-09T03:31:44.035Z,3.60
2022-09-09T03:34:14.634Z,3.40
2022-09-09T03:36:43.137Z,3.17
2022-09-09T03:39:11.636Z,3.40
2022-09-09T03:41:40.895Z,4.65
2022-09-09T03:44:09.037Z,5.20
2022-09-09T03:46:40.747Z,4.10
2022-09-09T03:49:08.705Z,4.40
2022-09-09T03:51:39.394Z,4.03
2022-09-09T03:54:09.336Z,3.20
2022-09-09T03:56:38.552Z,3.20
2022-09-09T03:59:06.715Z,3.20
2022-09-09T04:01:34.920Z,4.13
2022-09-09T04:04:03.334Z,4.72
2022-09-09T04:06:32.000Z,10.75
2022-09-09T04:09:03.300Z,6.40
2022-09-09T04:11:32.837Z,4.65
2022-09-09T04:14:01.620Z,5.55
2022-09-09T04:16:31.252Z,5.47
2022-09-09T04:19:00.758Z,17.70
2022-09-09T04:21:28.596Z,15.43
2022-09-09T04:23:56.584Z,11.73
2022-09-09T04:26:26.752Z,11.35
2022-09-09T04:28:54.685Z,10.32
2022-09-09T04:31:25.177Z,7.82
2022-09-09T04:33:56.002Z,7.72
2022-09-09T04:36:24.495Z,4.82
2022-09-09T04:38:56.510Z,3.83
2022-09-09T04:41:25.917Z,4.00
2022-09-09T04:43:55.451Z,5.28
2022-09-09T04:46:24.743Z,5.60
2022-09-09T04:48:53.733Z,4.20
2022-09-09T04:51:23.220Z,4.45
2022-09-09T04:53:52.415Z,4.78
2022-09-09T04:56:21.941Z,3.97
2022-09-09T04:58:55.301Z,4.35
2022-09-09T05:01:26.760Z,4.50
2022-09-09T05:03:59.123Z,4.40
2022-09-09T05:06:27.103Z,3.17
2022-09-09T05:09:00.050Z,3.63
2022-09-09T05:11:33.379Z,5.25
2022-09-09T05:14:25.975Z,4.93
2022-09-09T05:16:54.253Z,4.70
2022-09-09T05:19:24.129Z,5.25
2022-09-09T05:21:53.569Z,5.70
2022-09-09T05:24:27.516Z,5.63
2022-09-09T05:26:59.136Z,5.80
2022-09-09T05:29:28.728Z,7.25
2022-09-09T05:31:58.243Z,5.53
2022-09-09T05:34:26.297Z,5.25
2022-09-09T05:36:54.856Z,6.10
2022-09-09T05:39:24.848Z,5.30
2022-09-09T05:41:53.339Z,6.28
2022-09-09T05:44:21.773Z,4.43
2022-09-09T05:46:51.534Z,6.03
2022-09-09T05:49:20.021Z,6.53
2022-09-09T05:51:51.537Z,5.55
2022-09-09T05:54:20.900Z,6.47
2022-09-09T05:56:52.400Z,5.45
2022-09-09T05:59:20.946Z,4.40
2022-09-09T06:01:49.097Z,5.40
2022-09-09T06:04:27.523Z,5.88
2022-09-09T06:06:55.443Z,4.20
2022-09-09T06:09:24.608Z,3.78
2022-09-09T06:11:52.486Z,3.85
2022-09-09T06:14:22.909Z,4.47
2022-09-09T06:16:53.009Z,3.97
2022-09-09T06:19:27.933Z,4.45
2022-09-09T06:21:58.551Z,4.28
2022-09-09T06:24:26.963Z,4.78
2022-09-09T06:26:55.455Z,4.05
2022-09-09T06:29:28.403Z,3.50
2022-09-09T06:31:56.774Z,3.50
2022-09-09T06:34:29.405Z,4.15
2022-09-09T06:36:59.744Z,4.10
2022-09-09T06:39:34.094Z,4.03
2022-09-09T06:42:02.065Z,3.75
2022-09-09T06:44:55.936Z,5.05
2022-09-09T06:47:34.620Z,4.38
2022-09-09T06:50:03.884Z,4.50
2022-09-09T06:52:34.832Z,4.40
2022-09-09T06:55:04.029Z,4.47
2022-09-09T06:57:37.367Z,5.00
2022-09-09T07:00:09.873Z,5.00
2022-09-09T07:02:40.667Z,5.20
2022-09-09T07:05:11.761Z,4.45
2022-09-09T07:07:41.889Z,4.95
2022-09-09T07:10:11.581Z,4.55
2022-09-09T07:12:39.689Z,4.65
2022-09-09T07:15:12.122Z,5.47
2022-09-09T07:17:43.473Z,4.90
2022-09-09T07:20:13.345Z,4.43
2022-09-09T07:22:41.928Z,4.90
2022-09-09T07:25:11.022Z,4.88
2022-09-09T07:27:39.643Z,3.75
2022-09-09T07:30:09.168Z,4.50
2022-09-09T07:32:37.417Z,5.32
2022-09-09T07:35:06.098Z,4.75
2022-09-09T07:37:38.598Z,5.28
2022-09-09T07:40:07.657Z,5.68
2022-09-09T07:42:35.733Z,4.43
2022-09-09T07:45:03.598Z,4.32
2022-09-09T07:47:32.383Z,3.80
2022-09-09T07:50:00.418Z,3.75
2022-09-09T07:52:32.341Z,3.80
2022-09-09T07:55:07.267Z,3.40
2022-09-09T07:57:35.238Z,4.40
2022-09-09T08:00:05.712Z,3.40
2022-09-09T08:02:40.432Z,3.42
2022-09-09T08:05:10.259Z,3.30
2022-09-09T08:07:40.212Z,2.80
2022-09-09T08:10:11.594Z,3.42
2022-09-09T08:13:01.393Z,2.75
2022-09-09T08:15:31.172Z,2.38
2022-09-09T08:17:59.504Z,2.60
2022-09-09T08:20:28.250Z,2.70
2022-09-09T08:22:57.395Z,2.15
2022-09-09T08:25:26.706Z,2.42
2022-09-09T08:27:55.386Z,2.58
2022-09-09T08:30:23.427Z,2.83
2022-09-09T08:32:53.836Z,3.15
2022-09-09T08:35:23.363Z,2.88
2022-09-09T08:37:56.404Z,2.90
2022-09-09T08:40:39.616Z,2.80
2022-09-09T08:43:08.527Z,3.08
2022-09-09T08:45:48.621Z,3.00
2022-09-09T08:48:33.640Z,2.95
2022-09-09T08:51:03.177Z,2.53
2022-09-09T08:53:42.066Z,2.65
2022-09-09T08:56:16.263Z,1.42
2022-09-09T08:58:51.089Z,1.60
2022-09-09T09:01:37.463Z,1.50
2022-09-09T09:04:16.710Z,1.88
2022-09-09T09:06:56.506Z,1.67
2022-09-09T09:09:34.998Z,1.50
2022-09-09T09:12:17.144Z,1.50
2022-09-09T09:14:48.471Z,1.90
2022-09-09T09:17:20.879Z,1.33
2022-09-09T09:19:51.703Z,1.40
2022-09-09T09:22:23.117Z,1.98
2022-09-09T09:24:57.107Z,2.25
2022-09-09T09:27:33.968Z,2.10
2022-09-09T09:30:23.886Z,1.83
2022-09-09T09:32:57.749Z,1.23
2022-09-09T09:35:26.365Z,2.30
2022-09-09T09:40:51.194Z,1.30
2022-09-09T09:43:26.308Z,1.63
2022-09-09T09:46:14.298Z,2.60
2022-09-09T09:48:42.619Z,1.97
2022-09-09T09:51:15.035Z,2.40
2022-09-09T09:53:44.477Z,2.23
2022-09-09T09:56:15.896Z,2.10
2022-09-09T09:58:54.511Z,1.77
2022-09-09T10:01:30.938Z,2.40
2022-09-09T10:04:03.157Z,2.20
2022-09-09T10:06:34.122Z,2.40
2022-09-09T10:09:03.618Z,1.92
2022-09-09T10:11:46.323Z,1.65
2022-09-09T10:14:22.887Z,2.58
2022-09-09T10:17:10.116Z,2.27
2022-09-09T10:19:39.588Z,2.35
2022-09-09T10:22:21.316Z,2.60
2022-09-09T10:25:17.047Z,2.05
2022-09-09T10:27:59.788Z,2.15
2022-09-09T10:30:42.161Z,2.08
2022-09-09T10:33:12.718Z,2.00
2022-09-09T10:35:52.273Z,1.85
2022-09-09T10:38:27.018Z,2.15
2022-09-09T10:41:17.852Z,1.60
2022-09-09T10:44:09.371Z,1.52
2022-09-09T10:47:01.718Z,1.50
2022-09-09T10:49:50.764Z,1.40
2022-09-09T10:52:30.091Z,1.55
2022-09-09T10:55:03.791Z,1.70
2022-09-09T10:57:39.812Z,1.45
2022-09-09T11:00:16.613Z,2.00
2022-09-09T11:02:46.109Z,1.63
2022-09-09T11:05:21.380Z,1.42
2022-09-09T11:07:54.150Z,1.30
2022-09-09T11:10:29.230Z,1.63
2022-09-09T11:13:05.394Z,2.92
2022-09-09T11:15:38.835Z,1.70
2022-09-09T11:18:14.229Z,1.60
2022-09-09T11:20:43.338Z,1.73
2022-09-09T11:23:16.842Z,1.90
2022-09-09T11:25:51.798Z,1.40
2022-09-09T11:28:42.120Z,2.25
2022-09-09T11:31:30.756Z,2.50
2022-09-09T11:34:29.028Z,1.85
2022-09-09T11:37:19.256Z,1.80
2022-09-09T11:40:07.787Z,1.92
2022-09-09T11:42:35.907Z,2.40
2022-09-09T11:45:12.268Z,1.80
2022-09-09T11:47:40.596Z,2.20
2022-09-09T11:50:31.487Z,2.20
2022-09-09T11:53:08.521Z,2.10
2022-09-09T11:55:37.930Z,1.95
2022-09-09T11:58:07.815Z,3.08
2022-09-09T12:00:39.168Z,2.35
2022-09-09T12:03:10.078Z,2.33
2022-09-09T12:05:42.837Z,2.30
2022-09-09T12:08:13.378Z,3.15
2022-09-09T12:10:42.310Z,2.72
2022-09-09T12:13:20.261Z,2.80
2022-09-09T12:15:52.904Z,3.10
2022-09-09T12:18:26.379Z,2.50
2022-09-09T12:21:04.590Z,2.80
2022-09-09T12:23:40.997Z,2.80
2022-09-09T12:26:23.946Z,3.15
2022-09-09T12:29:05.595Z,2.47
2022-09-09T12:31:45.484Z,1.85
2022-09-09T12:34:20.615Z,2.55
2022-09-09T12:36:57.230Z,1.38
2022-09-09T12:39:32.183Z,1.17
2022-09-09T12:42:00.219Z,1.23
2022-09-09T12:44:30.039Z,1.20
2022-09-09T12:47:01.355Z,1.15
2022-09-09T12:49:35.475Z,1.20
2022-09-09T12:52:08.071Z,1.00
2022-09-09T12:54:38.497Z,1.40
2022-09-09T12:57:07.320Z,1.60
2022-09-09T12:59:40.336Z,1.38
2022-09-09T13:02:21.973Z,1.00
2022-09-09T13:04:51.538Z,1.30
2022-09-09T13:07:22.688Z,1.45
2022-09-09T13:09:51.672Z,1.20
2022-09-09T13:12:21.617Z,1.40
2022-09-09T13:14:52.842Z,1.30
2022-09-09T13:17:23.838Z,1.63
2022-09-09T13:19:53.936Z,1.38
2022-09-09T13:22:33.938Z,1.50
2022-09-09T13:25:05.876Z,1.70
2022-09-09T13:27:35.922Z,1.08
2022-09-09T13:30:04.077Z,1.58
2022-09-09T13:32:32.635Z,1.50
2022-09-09T13:35:03.774Z,1.20
2022-09-09T13:37:37.088Z,1.60
2022-09-09T13:40:08.477Z,1.38
2022-09-09T13:42:40.986Z,1.05
2022-09-09T13:45:21.517Z,1.83
2022-09-09T13:47:53.583Z,1.65
2022-09-09T13:50:22.445Z,1.40
2022-09-09T13:52:52.520Z,1.60
2022-09-09T13:55:22.631Z,1.92
2022-09-09T13:57:54.257Z,1.58
2022-09-09T14:00:22.790Z,2.03
2022-09-09T14:02:50.987Z,2.00
2022-09-09T14:05:19.865Z,1.40
2022-09-09T14:07:52.513Z,1.90
2022-09-09T14:10:23.429Z,1.58
2022-09-09T14:12:51.399Z,1.60
2022-09-09T14:15:20.184Z,2.15
2022-09-09T14:17:49.624Z,2.30
2022-09-09T14:20:18.762Z,2.30
2022-09-09T14:22:46.981Z,2.38
2022-09-09T14:25:15.536Z,2.03
2022-09-09T14:27:46.960Z,2.20
2022-09-09T14:30:15.006Z,2.10
2022-09-09T14:32:43.237Z,2.30
2022-09-09T14:35:11.240Z,1.92
2022-09-09T14:37:40.260Z,2.40
2022-09-09T14:40:09.621Z,1.33
2022-09-09T14:42:37.551Z,1.48
2022-09-09T14:45:08.425Z,1.15
2022-09-09T14:51:42.148Z,1.55
2022-09-09T14:54:11.923Z,1.67
2022-09-09T14:56:40.084Z,1.70
2022-09-09T14:59:08.682Z,1.73
2022-09-09T15:01:38.983Z,1.20
2022-09-09T15:04:07.982Z,2.10
2022-09-09T15:06:39.474Z,1.80
2022-09-09T15:09:07.580Z,1.25
2022-09-09T15:11:38.757Z,1.80
2022-09-09T15:14:08.117Z,1.30
2022-09-09T15:16:38.104Z,1.27
2022-09-09T15:19:06.259Z,1.58
2022-09-09T15:21:36.583Z,1.23
2022-09-09T15:24:05.408Z,1.60
2022-09-09T15:26:33.371Z,1.55
2022-09-09T15:29:01.689Z,1.55
2022-09-09T15:31:31.370Z,2.20
2022-09-09T15:34:03.533Z,1.40
2022-09-09T15:36:34.104Z,1.42
2022-09-09T15:39:03.244Z,1.20
2022-09-09T15:41:32.453Z,1.35
2022-09-09T15:44:01.416Z,1.70
2022-09-09T15:46:33.348Z,1.45
2022-09-09T15:49:06.935Z,1.40
2022-09-09T15:51:42.866Z,1.70
2022-09-09T15:54:13.307Z,1.40
2022-09-09T15:56:42.010Z,1.25
2022-09-09T15:59:10.479Z,1.23
2022-09-09T16:01:40.541Z,1.58
2022-09-09T16:04:09.959Z,1.42
2022-09-09T16:06:38.438Z,1.40
2022-09-09T16:09:08.818Z,1.00
2022-09-09T16:11:38.721Z,1.33
2022-09-09T16:14:07.544Z,1.00
2022-09-09T16:16:36.931Z,0.90
2022-09-09T16:19:07.633Z,1.20
2022-09-09T16:21:38.899Z,1.60
2022-09-09T16:24:08.477Z,0.90
2022-09-09T16:26:38.178Z,1.25
2022-09-09T16:29:06.295Z,1.00
2022-09-09T16:31:35.159Z,1.20
2022-09-09T16:34:05.500Z,1.30
2022-09-09T16:36:36.886Z,1.23
2022-09-09T16:39:07.758Z,1.30
2022-09-09T16:41:35.805Z,1.38
2022-09-09T16:44:05.505Z,1.00
2022-09-09T16:46:36.497Z,1.20
2022-09-09T16:49:07.227Z,1.35
2022-09-09T16:51:38.398Z,1.10
2022-09-09T16:54:09.106Z,1.08
2022-09-09T16:56:42.597Z,1.73
2022-09-09T16:59:15.224Z,3.00
2022-09-09T17:01:45.465Z,2.15
2022-09-09T17:04:17.277Z,3.30
2022-09-09T17:06:48.323Z,3.72
2022-09-09T17:09:16.465Z,2.92
2022-09-09T17:11:46.303Z,3.53
2022-09-09T17:14:17.408Z,3.72
2022-09-09T17:16:46.049Z,6.45
2022-09-09T17:19:14.532Z,11.32
2022-09-09T17:22:06.010Z,15.95
2022-09-09T17:24:34.085Z,6.40
2022-09-09T17:27:02.437Z,12.55
2022-09-09T17:29:30.310Z,3.10
2022-09-09T17:31:59.094Z,1.90
2022-09-09T17:34:27.185Z,1.35
2022-09-09T17:36:55.100Z,1.70
2022-09-09T17:39:23.330Z,1.67
2022-09-09T17:41:53.762Z,1.35
2022-09-09T17:44:21.576Z,1.55
2022-09-09T17:46:51.108Z,2.38
2022-09-09T17:49:19.540Z,2.38
2022-09-09T17:51:48.548Z,2.15
2022-09-09T17:54:19.211Z,2.10
2022-09-09T17:56:48.260Z,3.85
2022-09-09T17:59:19.376Z,2.78
2022-09-09T18:01:49.505Z,2.90
2022-09-09T18:04:18.992Z,7.57
2022-09-09T18:06:48.721Z,5.95
2022-09-09T18:09:18.681Z,9.02
2022-09-09T18:11:48.554Z,3.78
2022-09-09T18:14:20.263Z,4.82
2022-09-09T18:16:48.883Z,3.08
2022-09-09T18:19:18.940Z,3.83
2022-09-09T18:21:47.140Z,3.28
2022-09-09T18:24:17.652Z,2.30
2022-09-09T18:26:47.279Z,2.80
2022-09-09T18:29:19.970Z,4.35
2022-09-09T18:31:48.598Z,1.45
2022-09-09T18:34:19.804Z,1.45
2022-09-09T18:36:50.081Z,2.35
2022-09-09T18:39:20.009Z,9.10
2022-09-09T18:41:50.309Z,3.17
2022-09-09T18:44:22.520Z,2.00
2022-09-09T18:46:52.493Z,1.75
2022-09-09T18:49:21.643Z,2.50
2022-09-09T18:51:49.507Z,2.45
2022-09-09T18:54:20.320Z,2.17
2022-09-09T18:56:48.623Z,2.15
2022-09-09T18:59:20.432Z,2.75
2022-09-09T19:01:48.882Z,1.88
2022-09-09T19:04:17.915Z,1.77
2022-09-09T19:06:47.660Z,1.70
2022-09-09T19:09:18.454Z,1.90
2022-09-09T19:11:47.155Z,3.20
2022-09-09T19:14:17.270Z,3.80
2022-09-09T19:16:48.547Z,2.00
2022-09-09T19:19:18.830Z,2.10
2022-09-09T19:21:47.016Z,2.70
2022-09-09T19:24:18.128Z,2.58
2022-09-09T19:26:48.409Z,2.70
2022-09-09T19:29:19.365Z,2.33
2022-09-09T19:32:18.612Z,2.20
2022-09-09T19:34:38.364Z,2.50
2022-09-09T19:37:06.229Z,2.40
2022-09-09T19:39:34.622Z,2.30
2022-09-09T19:42:02.752Z,2.90
2022-09-09T19:44:30.723Z,2.90
2022-09-09T19:47:00.885Z,3.47
2022-09-09T19:49:29.306Z,3.00
2022-09-09T19:51:57.106Z,3.15
2022-09-09T19:54:26.105Z,2.47
2022-09-09T19:56:53.888Z,2.97
2022-09-09T19:59:22.803Z,2.95
2022-09-09T20:01:51.347Z,3.67
2022-09-09T20:04:21.534Z,2.85
2022-09-09T20:06:51.417Z,3.42
2022-09-09T20:09:19.832Z,3.30
2022-09-09T20:11:49.584Z,3.28
2022-09-09T20:14:18.316Z,3.78
2022-09-09T20:16:46.857Z,3.60
2022-09-09T20:19:17.314Z,4.72
2022-09-09T20:21:48.582Z,4.85
2022-09-09T20:24:18.182Z,4.15
2022-09-09T20:26:48.238Z,5.32
2022-09-09T20:29:18.427Z,6.22
2022-09-09T20:31:47.299Z,6.50
2022-09-09T20:34:17.115Z,6.65
2022-09-09T20:36:46.353Z,4.55
2022-09-09T20:39:16.122Z,4.50
2022-09-09T20:41:46.034Z,4.53
2022-09-09T20:44:16.886Z,4.82
2022-09-09T20:46:48.128Z,4.75
2022-09-09T20:49:17.701Z,4.22
2022-09-09T20:51:48.227Z,4.72
2022-09-09T20:54:19.806Z,4.88
2022-09-09T20:56:48.249Z,5.35
2022-09-09T20:59:17.943Z,4.30
2022-09-09T21:01:47.515Z,4.28
2022-09-09T21:04:16.684Z,3.85
2022-09-09T21:06:44.843Z,4.50
2022-09-09T21:09:14.306Z,5.40
2022-09-09T21:11:42.559Z,5.85
2022-09-09T21:14:10.828Z,3.97
2022-09-09T21:16:38.601Z,3.85
2022-09-09T21:19:06.874Z,5.22
2022-09-09T21:21:34.797Z,3.50
2022-09-09T21:24:03.074Z,4.60
2022-09-09T21:26:32.390Z,3.90
2022-09-09T21:29:00.454Z,4.32
2022-09-09T21:31:28.733Z,4.53
2022-09-09T21:33:57.102Z,5.32
2022-09-09T21:36:28.228Z,5.18
2022-09-09T21:38:56.787Z,4.22
2022-09-09T21:41:24.759Z,4.78
2022-09-09T21:43:55.422Z,5.53
2022-09-09T21:46:26.588Z,4.63
2022-09-09T21:48:56.365Z,6.80
2022-09-09T21:51:24.513Z,4.40
2022-09-09T21:53:56.090Z,3.90
2022-09-09T21:56:24.355Z,3.35
2022-09-09T21:58:57.680Z,3.80
2022-09-09T22:01:26.124Z,3.70
2022-09-09T22:03:54.139Z,3.05
2022-09-09T22:06:21.904Z,2.90
2022-09-09T22:08:50.023Z,3.45
2022-09-09T22:11:20.571Z,2.92
2022-09-09T22:13:48.438Z,3.30
2022-09-09T22:16:20.076Z,3.50
2022-09-09T22:18:52.066Z,3.20
2022-09-09T22:21:20.504Z,4.18
2022-09-09T22:23:53.432Z,3.53
2022-09-09T22:26:21.271Z,6.07
2022-09-09T22:28:49.308Z,5.75
2022-09-09T22:31:25.890Z,5.50
2022-09-09T22:33:54.744Z,5.30
2022-09-09T22:36:22.840Z,5.53
2022-09-09T22:38:51.809Z,4.93
2022-09-09T22:41:20.271Z,3.25
2022-09-09T22:43:48.816Z,3.47
2022-09-09T22:46:17.097Z,3.88
2022-09-09T22:48:46.441Z,6.13
2022-09-09T22:51:15.595Z,7.50
2022-09-09T22:53:45.829Z,5.30
2022-09-09T22:56:17.198Z,6.82
2022-09-09T22:58:45.217Z,5.68
2022-09-09T23:01:15.490Z,10.43
2022-09-09T23:03:46.206Z,4.97
2022-09-09T23:06:20.175Z,4.90
2022-09-09T23:08:49.959Z,4.00
2022-09-09T23:11:18.776Z,3.10
2022-09-09T23:13:50.222Z,3.40
2022-09-09T23:16:21.297Z,3.00
2022-09-09T23:18:51.060Z,3.42
2022-09-09T23:21:20.773Z,5.50
2022-09-09T23:23:48.978Z,4.72
2022-09-09T23:26:20.004Z,2.50
2022-09-09T23:28:49.986Z,2.50
2022-09-09T23:31:39.967Z,2.63
2022-09-09T23:34:07.999Z,4.32
2022-09-09T23:36:37.665Z,11.00
2022-09-09T23:39:06.636Z,3.60
2022-09-09T23:41:35.877Z,3.60
2022-09-09T23:44:04.624Z,3.30
2022-09-09T23:46:33.891Z,3.75
2022-09-09T23:49:02.737Z,2.53
2022-09-09T23:51:34.839Z,2.38
2022-09-09T23:54:05.367Z,2.30
2022-09-09T23:56:37.102Z,1.90
2022-09-09T23:59:05.692Z,1.70
